Papakura, New Zealand
Current Conditions -  °F | °C
As of 3:00 PM on Wednesday 22 Oct 2014 (Local Time) from NZAA Reporting Station
Rain Showers Rain Showers  
Wind Chill: 63°   Ceiling: 5000
Heat Index: 63°   Visibility: 6mi
Dew Point: 57°   Wind: 9mph
Humidity: 82%   Direction: 20°NNE
Pressure: 30.09"   Gusts: NA
Location:  37.07°S, 174.94°E
Report Text: NZAA 220300Z AUTO 02008KT 9999 VCSH FEW024/// SCT044///BKN050/// 17/14 Q1019 TEMPO 6000 SHRA FEW020TCU
Loading
Personal Weather Stations






























Interactive Weather Map
Tropical Storm Tracking
New forecast layout! Learn more

10-Day Weather Forecast

Advertisements
Track Severe Weather on mobile